Terminal Aerodrome Forecast
Issued by NWS Wilmington, OH

Current Version | Previous Version | Text Only | Print | Product List | Glossary Off
Versions: 1 2 3 4 5 6 7 8 9 10 11 12 13 14 15 16 17 18 19 20 21 22 23 24 25 26 27

000
FTUS41 KILN 282300 RRA
TAFILN
TAF
KILN 282343Z 2900/2924 26008KT P6SM SCT070
     FM290400 19003KT P6SM BKN070
     FM291100 13008KT P6SM VCSH SCT040 BKN080
     FM291300 20012G20KT 5SM -SHRA BKN040
     FM291600 23012G22KT P6SM VCTS BKN040CB=

USA.gov is the U.S. government's official web portal to all federal, state and local government web resources and services.